Time;durP1;ratioP1;P1;durP2;ratioP2;P2;SDS_P1;SDS_P2;PMS_P1;PMS_P2;Temp;Humidity;BMP_temperature;BMP_pressure;BME280_temperature;BME280_humidity;BME280_pressure;Samples;Min_cycle;Max_cycle;Signal;HPM_P1;HPM_P2
2022/07/25 00:00:29;;;;;;;12.38;9.30;;;21.10;99.90;;;;;;5034539;28;20173;-83
2022/07/25 00:02:55;;;;;;;13.10;8.73;;;20.90;99.90;;;;;;5032782;28;20202;-83
2022/07/25 00:05:20;;;;;;;15.45;9.45;;;20.80;99.90;;;;;;5033042;28;20538;-83
2022/07/25 00:07:46;;;;;;;12.73;9.02;;;20.80;99.90;;;;;;5033109;28;20174;-83
2022/07/25 00:10:12;;;;;;;11.85;9.20;;;21.10;99.90;;;;;;5034016;28;20173;-83
2022/07/25 00:12:37;;;;;;;13.27;8.77;;;21.00;99.90;;;;;;5032604;28;20182;-83
2022/07/25 00:15:03;;;;;;;16.90;9.57;;;20.80;99.90;;;;;;5034220;28;20181;-83
2022/07/25 00:17:29;;;;;;;12.88;9.52;;;20.70;99.90;;;;;;5034348;28;20267;-83
2022/07/25 00:19:54;;;;;;;13.18;9.10;;;20.60;99.90;;;;;;5032235;28;20197;-83
2022/07/25 00:22:20;;;;;;;12.48;9.73;;;20.50;99.90;;;;;;5034116;28;20284;-83
2022/07/25 00:24:46;;;;;;;13.27;9.43;;;20.50;99.90;;;;;;5033760;28;20177;-83
2022/07/25 00:27:11;;;;;;;11.40;9.60;;;20.50;99.90;;;;;;5032713;28;20244;-83
2022/07/25 00:29:37;;;;;;;13.68;8.85;;;20.50;99.90;;;;;;5033695;28;20182;-83
2022/07/25 00:32:03;;;;;;;12.07;8.70;;;20.40;99.90;;;;;;5033616;28;20182;-83
2022/07/25 00:34:28;;;;;;;16.58;8.52;;;20.40;99.90;;;;;;5032392;28;20594;-83
2022/07/25 00:36:54;;;;;;;8.88;7.50;;;20.50;99.90;;;;;;5033736;28;20580;-83
2022/07/25 00:39:19;;;;;;;14.90;8.25;;;20.90;99.90;;;;;;5033538;28;20256;-83
2022/07/25 00:41:45;;;;;;;16.10;8.10;;;20.90;99.90;;;;;;5033248;28;20704;-83
2022/07/25 00:44:28;;;;;;;14.63;8.30;;;20.80;99.90;;;;;;5032454;28;20162;-83
2022/07/25 00:46:54;;;;;;;9.82;7.63;;;20.80;99.90;;;;;;5034008;28;20186;-83
2022/07/25 00:49:20;;;;;;;11.38;7.65;;;20.80;99.90;;;;;;5034237;28;20166;-83
2022/07/25 00:51:47;;;;;;;9.90;7.38;;;20.80;99.90;;;;;;5033750;28;20167;-83
2022/07/25 00:54:13;;;;;;;12.20;7.78;;;20.90;99.90;;;;;;5033984;28;20548;-84
2022/07/25 00:56:39;;;;;;;13.55;7.50;;;20.60;99.90;;;;;;5032887;28;20190;-83
2022/07/25 00:59:05;;;;;;;15.15;8.15;;;20.70;99.90;;;;;;5033564;28;20174;-84
2022/07/25 01:01:31;;;;;;;14.50;7.63;;;20.70;99.90;;;;;;5033337;28;20201;-83
2022/07/25 01:03:57;;;;;;;8.90;7.60;;;20.80;99.90;;;;;;5031938;28;20220;-83
2022/07/25 01:06:23;;;;;;;13.18;7.70;;;20.90;99.90;;;;;;5033859;28;20190;-83
2022/07/25 01:08:48;;;;;;;8.32;6.90;;;20.80;99.90;;;;;;5032101;28;20236;-83
2022/07/25 01:11:14;;;;;;;10.13;7.00;;;20.90;99.90;;;;;;5032076;28;20166;-83
2022/07/25 01:13:40;;;;;;;15.90;7.45;;;20.80;99.90;;;;;;5031445;28;20205;-83
2022/07/25 01:16:06;;;;;;;9.77;7.15;;;20.80;99.90;;;;;;5035083;23;20215;-85
2022/07/25 01:18:33;;;;;;;11.10;7.40;;;20.70;99.90;;;;;;5012213;28;20197;-84
2022/07/25 01:20:59;;;;;;;10.38;7.50;;;20.70;99.90;;;;;;5011909;28;20175;-85
2022/07/25 01:23:25;;;;;;;13.02;7.38;;;20.70;99.90;;;;;;5012316;28;20213;-85
2022/07/25 01:25:51;;;;;;;8.77;7.18;;;20.70;99.90;;;;;;5012440;28;20170;-84
2022/07/25 01:28:17;;;;;;;12.93;7.72;;;20.90;99.90;;;;;;5012281;28;20174;-84
2022/07/25 01:30:43;;;;;;;8.77;7.25;;;20.90;99.90;;;;;;5012040;28;20198;-84
2022/07/25 01:33:08;;;;;;;8.35;7.15;;;20.90;99.90;;;;;;5011984;28;20666;-84
2022/07/25 01:35:34;;;;;;;11.35;7.57;;;20.70;99.90;;;;;;5012099;28;20194;-84
2022/07/25 01:38:00;;;;;;;8.27;7.05;;;20.70;99.90;;;;;;5011941;28;20639;-85
2022/07/25 01:40:25;;;;;;;11.38;7.75;;;20.60;99.90;;;;;;5012122;28;20257;-84
2022/07/25 01:42:51;;;;;;;13.20;7.50;;;20.60;99.90;;;;;;5011531;28;20747;-85
2022/07/25 01:45:17;;;;;;;8.88;7.30;;;20.50;99.90;;;;;;5011959;28;20210;-84
2022/07/25 01:47:42;;;;;;;9.13;7.18;;;20.60;99.90;;;;;;5012008;28;20159;-85
2022/07/25 01:50:08;;;;;;;8.77;7.80;;;20.70;99.90;;;;;;5011754;28;20259;-84
2022/07/25 01:52:35;;;;;;;9.85;7.72;;;20.70;99.90;;;;;;5012951;28;20201;-84
2022/07/25 01:55:01;;;;;;;8.75;7.45;;;20.60;99.90;;;;;;5012651;28;20194;-84
2022/07/25 01:57:27;;;;;;;11.77;7.57;;;20.60;99.90;;;;;;5012754;28;20180;-84
2022/07/25 01:59:52;;;;;;;11.07;7.65;;;20.50;99.90;;;;;;5012507;28;20174;-84
2022/07/25 02:02:18;;;;;;;10.25;7.20;;;20.50;99.90;;;;;;5012069;28;20202;-83
2022/07/25 02:04:43;;;;;;;11.30;7.28;;;20.40;99.90;;;;;;5012377;28;20248;-83
2022/07/25 02:07:09;;;;;;;13.45;7.95;;;20.40;99.90;;;;;;5013056;28;20601;-82
2022/07/25 02:09:35;;;;;;;15.60;8.20;;;20.50;99.90;;;;;;5012081;28;20278;-83
2022/07/25 02:12:00;;;;;;;10.55;7.60;;;20.40;99.90;;;;;;5012111;28;20178;-83
2022/07/25 02:14:26;;;;;;;13.20;8.63;;;20.50;99.90;;;;;;5011839;28;20190;-83
2022/07/25 02:16:52;;;;;;;10.75;7.88;;;20.50;99.90;;;;;;5011897;28;20230;-84
2022/07/25 02:19:18;;;;;;;11.73;7.28;;;20.40;99.90;;;;;;5011985;28;20237;-84
2022/07/25 02:21:44;;;;;;;11.25;7.97;;;20.50;99.90;;;;;;5011954;28;20225;-84
2022/07/25 02:24:09;;;;;;;9.52;7.80;;;20.30;99.90;;;;;;5012229;28;20191;-83
2022/07/25 02:26:35;;;;;;;12.07;8.15;;;20.30;99.90;;;;;;5014830;28;20174;-82
2022/07/25 02:29:01;;;;;;;12.07;7.93;;;20.30;99.90;;;;;;5016555;28;20266;-83
2022/07/25 02:31:26;;;;;;;11.13;7.70;;;20.30;99.90;;;;;;5016705;28;20170;-84
2022/07/25 02:33:52;;;;;;;11.15;8.50;;;20.30;99.90;;;;;;5023189;28;20205;-83
2022/07/25 02:36:18;;;;;;;10.70;8.50;;;20.30;99.90;;;;;;5015989;28;20258;-83
2022/07/25 02:38:43;;;;;;;12.30;7.72;;;20.20;99.90;;;;;;5016157;28;20193;-83
2022/07/25 02:41:10;;;;;;;11.27;7.67;;;20.30;99.90;;;;;;5016701;28;20245;-84
2022/07/25 02:43:35;;;;;;;10.70;7.53;;;20.10;99.90;;;;;;5015939;28;20198;-83
2022/07/25 02:46:01;;;;;;;11.53;7.77;;;20.20;99.90;;;;;;5016545;28;20181;-83
2022/07/25 02:48:27;;;;;;;12.40;7.68;;;20.20;99.90;;;;;;5016002;28;20229;-83
2022/07/25 02:50:53;;;;;;;14.07;7.83;;;20.00;99.90;;;;;;5016236;28;20318;-83
2022/07/25 02:53:18;;;;;;;10.40;7.60;;;20.00;99.90;;;;;;5017611;28;20167;-82
2022/07/25 02:55:44;;;;;;;11.87;7.90;;;20.00;99.90;;;;;;5017000;28;20179;-82
2022/07/25 02:58:10;;;;;;;9.65;7.70;;;19.90;99.90;;;;;;5016186;28;20186;-83
2022/07/25 03:00:36;;;;;;;9.83;8.03;;;20.00;99.90;;;;;;5016360;28;20214;-83
2022/07/25 03:03:01;;;;;;;10.23;7.60;;;20.00;99.90;;;;;;5016144;28;20294;-83
2022/07/25 03:05:27;;;;;;;12.00;8.70;;;20.00;99.90;;;;;;5015996;28;20198;-84
2022/07/25 03:07:53;;;;;;;9.02;7.60;;;19.80;99.90;;;;;;5016790;28;20174;-83
2022/07/25 03:10:19;;;;;;;14.00;8.90;;;19.70;99.90;;;;;;5015769;28;20182;-83
2022/07/25 03:12:45;;;;;;;14.97;8.23;;;19.70;99.90;;;;;;5015255;28;20186;-83
2022/07/25 03:15:13;;;;;;;10.73;8.17;;;19.90;99.90;;;;;;5016681;28;20198;-83
2022/07/25 03:17:39;;;;;;;13.50;9.17;;;19.70;99.90;;;;;;5016041;28;20202;-83
2022/07/25 03:20:06;;;;;;;12.03;8.33;;;19.70;99.90;;;;;;5015535;28;20179;-84
2022/07/25 03:22:31;;;;;;;12.10;9.30;;;19.60;99.90;;;;;;5014633;28;20203;-84
2022/07/25 03:24:57;;;;;;;13.87;9.33;;;19.70;99.90;;;;;;5014728;28;20214;-84
2022/07/25 03:27:23;;;;;;;14.00;8.67;;;19.60;99.90;;;;;;5011282;28;20269;-84
2022/07/25 03:29:48;;;;;;;12.20;9.20;;;19.50;99.90;;;;;;5013995;28;20170;-84
2022/07/25 03:32:14;;;;;;;12.00;8.57;;;19.60;99.90;;;;;;5013759;28;20709;-84
2022/07/25 03:34:39;;;;;;;11.87;9.10;;;19.70;99.90;;;;;;5015094;28;20221;-84
2022/07/25 03:37:05;;;;;;;13.23;9.23;;;19.60;99.90;;;;;;5016098;28;20174;-82
2022/07/25 03:39:31;;;;;;;10.47;8.90;;;19.50;99.90;;;;;;5017665;28;20185;-83
2022/07/25 03:41:57;;;;;;;13.87;8.57;;;19.60;99.90;;;;;;5017743;28;20198;-83
2022/07/25 03:44:24;;;;;;;11.90;8.73;;;19.70;99.90;;;;;;5018303;28;20269;-83
2022/07/25 03:46:50;;;;;;;12.20;8.97;;;19.50;99.90;;;;;;5018815;28;20643;-83
2022/07/25 03:49:17;;;;;;;14.40;8.97;;;19.40;99.90;;;;;;5017996;28;20224;-83
2022/07/25 03:51:42;;;;;;;15.73;8.87;;;19.50;99.90;;;;;;5018367;28;20202;-83
2022/07/25 03:54:12;;;;;;;12.60;7.77;;;19.60;99.90;;;;;;5017803;28;20737;-83
2022/07/25 03:56:40;;;;;;;11.67;7.87;;;19.50;99.90;;;;;;5018715;28;20639;-83
2022/07/25 03:59:08;;;;;;;10.00;8.40;;;19.40;99.90;;;;;;5017860;28;20185;-83
2022/07/25 04:01:34;;;;;;;12.40;8.80;;;19.50;99.90;;;;;;5018049;28;20171;-81
2022/07/25 04:04:00;;;;;;;13.60;8.70;;;19.40;99.90;;;;;;5017564;28;20224;-81
2022/07/25 04:06:26;;;;;;;11.80;8.90;;;19.40;99.90;;;;;;5015790;28;20210;-81
2022/07/25 04:08:52;;;;;;;16.80;8.70;;;19.40;99.90;;;;;;5015808;28;20250;-82
2022/07/25 04:11:18;;;;;;;12.30;8.90;;;19.50;99.90;;;;;;5016741;28;20189;-81
2022/07/25 04:13:44;;;;;;;11.90;8.10;;;19.60;99.90;;;;;;5015493;28;20248;-82
2022/07/25 04:16:10;;;;;;;12.20;8.83;;;19.50;99.90;;;;;;5016439;28;20256;-82
2022/07/25 04:18:36;;;;;;;13.37;8.43;;;19.70;99.90;;;;;;5015229;28;20178;-82
2022/07/25 04:21:03;;;;;;;12.60;8.87;;;19.70;99.90;;;;;;5015072;28;20182;-82
2022/07/25 04:23:30;;;;;;;10.30;8.97;;;19.90;99.90;;;;;;5015533;28;20675;-81
2022/07/25 04:25:56;;;;;;;10.77;8.17;;;20.00;99.90;;;;;;5015341;28;20590;-82
2022/07/25 04:28:21;;;;;;;11.17;8.90;;;20.10;99.90;;;;;;5018204;28;20203;-79
2022/07/25 04:30:47;;;;;;;8.90;7.90;;;20.20;99.90;;;;;;5017798;28;20189;-79
2022/07/25 04:33:13;;;;;;;11.90;8.10;;;20.30;99.90;;;;;;5017917;28;20228;-79
2022/07/25 04:35:39;;;;;;;12.33;7.97;;;20.30;99.90;;;;;;5018492;28;20206;-79
2022/07/25 04:38:04;;;;;;;10.07;7.80;;;20.40;99.90;;;;;;5017753;28;20174;-79
2022/07/25 04:40:30;;;;;;;11.48;7.63;;;20.40;99.90;;;;;;5017626;28;20288;-79
2022/07/25 04:42:55;;;;;;;11.23;8.25;;;20.40;99.90;;;;;;5016714;28;20209;-79
2022/07/25 04:45:22;;;;;;;10.80;7.40;;;20.50;99.90;;;;;;5017165;28;20288;-79
2022/07/25 04:47:48;;;;;;;15.80;7.70;;;20.60;99.90;;;;;;5017263;28;20174;-79
2022/07/25 04:50:15;;;;;;;8.10;6.70;;;20.90;99.90;;;;;;5018920;28;20233;-78
2022/07/25 04:52:41;;;;;;;10.73;6.78;;;21.20;99.90;;;;;;5018297;28;20596;-78
2022/07/25 04:55:07;;;;;;;10.48;6.78;;;21.50;99.90;;;;;;5019835;28;20194;-79
2022/07/25 04:57:32;;;;;;;9.50;7.30;;;21.60;99.90;;;;;;5019173;28;20180;-82
2022/07/25 04:59:58;;;;;;;9.00;6.80;;;21.90;99.90;;;;;;5023144;28;20183;-82
2022/07/25 05:02:24;;;;;;;10.23;7.43;;;22.00;99.90;;;;;;5021948;28;20198;-81
2022/07/25 05:04:50;;;;;;;10.68;7.25;;;21.90;99.90;;;;;;5021521;28;20798;-81
2022/07/25 05:07:16;;;;;;;10.65;6.97;;;21.70;99.90;;;;;;5026730;28;20262;-81
2022/07/25 05:09:42;;;;;;;11.25;7.00;;;21.70;99.90;;;;;;5018404;28;20213;-82
2022/07/25 05:12:08;;;;;;;12.27;7.05;;;21.70;99.90;;;;;;5016741;28;20175;-81
2022/07/25 05:14:34;;;;;;;10.10;6.72;;;21.50;99.90;;;;;;5017502;28;20236;-82
2022/07/25 05:16:59;;;;;;;8.05;6.78;;;21.50;99.90;;;;;;5016977;28;20195;-82
2022/07/25 05:19:25;;;;;;;7.85;7.05;;;21.60;99.90;;;;;;5017242;28;20175;-81
2022/07/25 05:21:51;;;;;;;10.80;6.88;;;21.70;99.90;;;;;;5017356;28;20273;-83
2022/07/25 05:24:17;;;;;;;10.13;7.10;;;21.80;99.90;;;;;;5014869;28;20270;-83
2022/07/25 05:26:43;;;;;;;12.57;6.90;;;21.60;99.90;;;;;;5016298;28;20198;-82
2022/07/25 05:29:09;;;;;;;15.80;7.68;;;21.60;99.90;;;;;;5016808;28;20182;-81
2022/07/25 05:31:35;;;;;;;10.52;6.70;;;21.50;99.90;;;;;;5015644;28;20240;-82
2022/07/25 05:34:01;;;;;;;16.42;7.38;;;21.70;99.90;;;;;;5015887;28;20241;-82
2022/07/25 05:36:27;;;;;;;10.02;7.10;;;21.60;99.90;;;;;;5016868;28;20175;-82
2022/07/25 05:38:53;;;;;;;11.43;7.00;;;21.50;99.90;;;;;;5017519;28;20181;-82
2022/07/25 05:41:19;;;;;;;11.25;7.15;;;21.60;99.90;;;;;;5016297;28;20666;-81
2022/07/25 05:43:46;;;;;;;9.10;6.43;;;21.60;99.90;;;;;;5017524;28;20230;-82
2022/07/25 05:46:12;;;;;;;9.70;7.32;;;21.80;99.90;;;;;;5018805;28;20178;-82
2022/07/25 05:48:38;;;;;;;12.93;7.30;;;21.90;99.90;;;;;;5016569;28;20183;-82
2022/07/25 05:51:03;;;;;;;15.18;7.72;;;22.00;99.90;;;;;;5015514;28;20602;-83
2022/07/25 05:53:29;;;;;;;9.15;7.60;;;22.00;99.90;;;;;;5016941;28;20174;-82
2022/07/25 05:55:55;;;;;;;14.65;7.20;;;22.30;99.90;;;;;;5014436;28;20635;-84
2022/07/25 05:58:20;;;;;;;8.68;6.68;;;22.60;99.90;;;;;;5013562;28;20666;-84
2022/07/25 06:00:46;;;;;;;9.48;6.70;;;22.80;99.90;;;;;;5011997;28;20185;-84
2022/07/25 06:03:11;;;;;;;10.73;7.13;;;22.90;99.90;;;;;;5011852;28;20214;-84
2022/07/25 06:05:37;;;;;;;8.85;6.72;;;23.20;99.90;;;;;;5012606;28;20655;-84
2022/07/25 06:08:03;;;;;;;11.80;6.93;;;23.40;99.90;;;;;;5015752;28;20186;-83
2022/07/25 06:10:28;;;;;;;8.15;6.00;;;23.50;99.90;;;;;;5014698;28;20631;-84
2022/07/25 06:12:54;;;;;;;14.90;7.10;;;23.90;99.90;;;;;;5011940;28;20178;-84
2022/07/25 06:15:20;;;;;;;9.35;6.90;;;24.50;99.90;;;;;;5015342;28;20217;-84
2022/07/25 06:17:45;;;;;;;8.02;5.78;;;24.80;99.90;;;;;;5017558;28;20186;-84
2022/07/25 06:20:11;;;;;;;11.82;6.05;;;25.10;99.90;;;;;;5018282;28;20178;-84
2022/07/25 06:22:37;;;;;;;9.75;6.47;;;25.20;99.90;;;;;;5017692;28;20205;-85
2022/07/25 06:25:03;;;;;;;11.85;6.00;;;25.80;99.90;;;;;;5018541;28;20604;-84
2022/07/25 06:27:29;;;;;;;8.82;5.93;;;25.50;99.90;;;;;;5021727;28;20201;-84
2022/07/25 06:29:54;;;;;;;9.38;6.18;;;25.50;99.90;;;;;;5024606;28;20175;-83
2022/07/25 06:32:20;;;;;;;8.98;6.38;;;25.70;99.90;;;;;;5026850;28;20170;-82
2022/07/25 06:34:45;;;;;;;9.18;6.53;;;26.10;99.90;;;;;;5023331;28;20561;-83
2022/07/25 06:37:11;;;;;;;7.35;6.05;;;26.00;99.90;;;;;;5024485;28;20179;-83
2022/07/25 06:39:37;;;;;;;13.43;6.28;;;26.20;99.90;;;;;;5025821;28;20242;-84
2022/07/25 06:42:03;;;;;;;9.15;5.80;;;26.30;99.90;;;;;;5024499;28;20217;-83
2022/07/25 06:44:32;;;;;;;8.02;5.78;;;26.30;99.90;;;;;;5023283;28;20199;-83
2022/07/25 06:47:00;;;;;;;6.65;5.50;;;26.50;99.90;;;;;;5020824;28;20206;-84
2022/07/25 06:49:25;;;;;;;8.25;5.43;;;26.80;99.70;;;;;;5023157;28;20182;-84
2022/07/25 06:51:51;;;;;;;6.20;5.60;;;27.30;99.20;;;;;;5023565;28;20183;-84
2022/07/25 06:54:17;;;;;;;6.28;5.55;;;27.30;99.00;;;;;;5023341;28;20226;-83
2022/07/25 06:56:43;;;;;;;6.45;5.65;;;27.40;98.50;;;;;;5020794;28;20171;-83
2022/07/25 06:59:09;;;;;;;7.65;5.68;;;28.30;98.40;;;;;;5023811;28;20189;-83
2022/07/25 07:01:35;;;;;;;8.50;5.35;;;28.40;97.40;;;;;;5022863;28;20175;-83
2022/07/25 07:04:01;;;;;;;9.93;5.38;;;28.80;96.90;;;;;;5026280;28;20198;-83
2022/07/25 07:06:27;;;;;;;8.38;5.53;;;28.90;96.10;;;;;;5025540;28;20173;-84
2022/07/25 07:08:53;;;;;;;7.45;5.35;;;29.00;95.90;;;;;;5027314;28;20171;-84
2022/07/25 07:11:18;;;;;;;7.43;5.20;;;29.00;95.40;;;;;;5026636;28;20581;-84
2022/07/25 07:13:44;;;;;;;7.15;5.10;;;29.20;95.30;;;;;;5026218;28;20202;-85
2022/07/25 07:16:10;;;;;;;6.07;5.45;;;29.10;95.90;;;;;;5023670;28;20187;-84
2022/07/25 07:18:36;;;;;;;11.90;5.85;;;28.90;94.70;;;;;;5025445;28;20179;-84
2022/07/25 07:21:03;;;;;;;9.93;5.50;;;28.50;95.10;;;;;;5025186;28;20239;-84
2022/07/25 07:23:28;;;;;;;10.80;5.53;;;28.20;95.60;;;;;;5023139;28;20225;-84
2022/07/25 07:25:54;;;;;;;8.57;5.82;;;28.30;94.50;;;;;;5024618;28;20174;-84
2022/07/25 07:28:20;;;;;;;7.40;5.50;;;28.50;94.10;;;;;;5024127;28;20177;-84
2022/07/25 07:30:45;;;;;;;9.23;5.80;;;28.20;94.70;;;;;;5023868;28;20175;-83
2022/07/25 07:33:11;;;;;;;7.53;5.45;;;28.10;95.20;;;;;;5021989;28;20572;-84
2022/07/25 07:35:37;;;;;;;7.90;5.47;;;27.90;94.50;;;;;;5020405;28;20194;-84
2022/07/25 07:38:02;;;;;;;6.90;5.68;;;27.90;93.40;;;;;;5020519;28;20179;-85
2022/07/25 07:40:28;;;;;;;8.90;5.68;;;27.80;94.20;;;;;;5021914;28;20241;-85
2022/07/25 07:42:55;;;;;;;6.57;5.68;;;27.90;93.50;;;;;;5020777;28;20679;-84
2022/07/25 07:45:23;;;;;;;10.35;5.68;;;28.10;93.20;;;;;;5019829;28;20221;-84
2022/07/25 07:47:50;;;;;;;7.60;5.70;;;27.90;94.40;;;;;;5019427;28;20245;-84
2022/07/25 07:50:18;;;;;;;8.27;5.25;;;28.00;93.70;;;;;;5019422;28;20181;-84
2022/07/25 07:52:45;;;;;;;7.47;5.82;;;28.20;94.90;;;;;;5017401;28;20274;-84
2022/07/25 07:57:58;;;;;;;8.00;6.15;;;27.90;93.80;;;;;;5018992;28;20182;-84
2022/07/25 08:00:24;;;;;;;6.07;5.50;;;27.90;94.80;;;;;;5016818;28;20182;-85
2022/07/25 08:02:51;;;;;;;6.90;5.60;;;27.90;94.60;;;;;;5017173;28;20207;-84
2022/07/25 08:05:29;;;;;;;5.85;5.30;;;28.00;94.70;;;;;;5015260;28;20205;-84
2022/07/25 08:07:55;;;;;;;8.45;5.88;;;28.00;95.00;;;;;;5014442;28;20170;-84
2022/07/25 08:10:23;;;;;;;7.90;5.80;;;28.00;94.10;;;;;;5013906;28;20166;-84
2022/07/25 08:12:49;;;;;;;6.93;6.00;;;28.40;94.50;;;;;;5013508;28;20185;-82
2022/07/25 08:15:16;;;;;;;7.85;5.80;;;28.30;94.00;;;;;;5013753;28;20244;-83
2022/07/25 08:17:43;;;;;;;8.43;5.88;;;28.40;93.60;;;;;;5015314;28;20190;-83
2022/07/25 08:20:09;;;;;;;9.05;5.97;;;28.20;93.70;;;;;;5015710;28;20241;-84
2022/07/25 08:22:40;;;;;;;10.27;5.70;;;28.20;93.90;;;;;;5014636;28;20225;-85
2022/07/25 08:25:15;;;;;;;6.05;5.45;;;28.00;94.20;;;;;;5016851;28;20187;-84
2022/07/25 08:27:41;;;;;;;6.60;5.90;;;28.00;94.10;;;;;;5014125;28;20166;-83
2022/07/25 08:30:08;;;;;;;7.97;6.07;;;27.80;94.20;;;;;;5013797;28;20174;-83
2022/07/25 08:32:33;;;;;;;7.38;5.53;;;27.90;94.30;;;;;;5013450;28;20184;-84
2022/07/25 08:35:03;;;;;;;7.47;5.47;;;27.90;94.50;;;;;;5013511;28;20282;-83
2022/07/25 08:37:28;;;;;;;8.02;5.63;;;28.00;94.50;;;;;;5013365;28;20620;-84
2022/07/25 08:39:54;;;;;;;7.53;5.85;;;28.10;93.50;;;;;;5012987;28;20178;-84
2022/07/25 08:42:20;;;;;;;11.25;6.28;;;27.90;94.60;;;;;;5014136;28;20202;-81
2022/07/25 08:44:58;;;;;;;9.52;6.25;;;27.70;93.40;;;;;;5014665;28;20226;-83
2022/07/25 08:47:24;;;;;;;7.35;5.63;;;27.80;93.80;;;;;;5013430;28;20183;-83
2022/07/25 08:49:50;;;;;;;7.85;5.78;;;27.60;93.80;;;;;;5012896;28;20178;-82
2022/07/25 08:52:17;;;;;;;7.45;5.78;;;27.60;93.70;;;;;;5013144;28;20179;-82
2022/07/25 08:54:46;;;;;;;9.10;6.03;;;27.50;94.00;;;;;;5018956;28;20263;-84
2022/07/25 08:57:12;;;;;;;8.93;6.07;;;27.60;93.00;;;;;;5019678;28;20269;-83
2022/07/25 08:59:38;;;;;;;8.25;5.57;;;27.50;94.40;;;;;;5020604;28;20198;-83
2022/07/25 09:02:06;;;;;;;6.90;5.95;;;27.60;93.90;;;;;;5021513;28;20203;-84
2022/07/25 09:04:35;;;;;;;7.15;5.60;;;27.60;94.10;;;;;;5021357;28;20194;-84
2022/07/25 09:07:03;;;;;;;6.20;5.60;;;27.60;94.40;;;;;;5022778;28;20170;-84
2022/07/25 09:09:31;;;;;;;7.63;5.32;;;27.70;94.30;;;;;;5020926;28;20175;-84
2022/07/25 09:11:57;;;;;;;6.18;5.55;;;27.60;93.60;;;;;;5023237;28;20185;-84
2022/07/25 09:14:23;;;;;;;8.80;5.97;;;27.90;93.50;;;;;;5022770;28;20191;-83
2022/07/25 09:16:49;;;;;;;8.43;5.97;;;28.20;94.10;;;;;;5023036;28;20190;-84
2022/07/25 09:19:16;;;;;;;7.93;6.20;;;28.10;93.70;;;;;;5020932;28;20170;-83
2022/07/25 09:21:44;;;;;;;8.05;5.68;;;28.00;93.50;;;;;;5021932;28;20190;-84
2022/07/25 09:24:16;;;;;;;10.25;5.95;;;28.30;93.80;;;;;;5022644;28;20220;-83
2022/07/25 09:26:51;;;;;;;10.30;5.53;;;29.00;93.40;;;;;;5023778;28;20225;-84
2022/07/25 09:29:22;;;;;;;8.57;5.97;;;29.60;92.00;;;;;;5023766;28;20249;-84
2022/07/25 09:31:48;;;;;;;9.63;5.63;;;30.10;91.20;;;;;;5019339;28;20178;-85
2022/07/25 09:34:38;;;;;;;9.27;5.70;;;29.90;91.70;;;;;;5022264;28;20745;-84
2022/07/25 09:37:07;;;;;;;7.60;6.13;;;30.10;91.90;;;;;;5019799;28;20182;-84
2022/07/25 09:39:44;;;;;;;10.23;5.60;;;30.00;91.60;;;;;;5022276;28;20170;-85
2022/07/25 09:42:17;;;;;;;8.18;5.85;;;29.60;91.20;;;;;;5022343;28;20190;-84
2022/07/25 09:44:43;;;;;;;11.55;5.80;;;29.50;91.50;;;;;;5018882;28;20210;-84
2022/07/25 09:47:13;;;;;;;16.60;6.05;;;29.60;91.70;;;;;;5019379;28;20181;-84
2022/07/25 09:49:44;;;;;;;8.52;5.55;;;29.90;91.10;;;;;;5019888;28;20194;-82
2022/07/25 09:52:11;;;;;;;5.80;5.30;;;30.50;92.50;;;;;;5015246;28;20280;-83
2022/07/25 09:54:40;;;;;;;9.80;5.53;;;30.50;90.90;;;;;;5016559;28;20197;-84
2022/07/25 09:57:05;;;;;;;10.25;6.05;;;30.70;91.20;;;;;;5015220;28;20178;-84
2022/07/25 09:59:35;;;;;;;12.40;5.95;;;31.40;90.70;;;;;;5014453;28;20182;-84
2022/07/25 10:02:27;;;;;;;6.97;5.60;;;31.60;90.50;;;;;;5016569;28;20277;-84
2022/07/25 10:05:25;;;;;;;8.07;5.63;;;31.90;90.60;;;;;;4994373;28;20204;-83
2022/07/25 10:07:53;;;;;;;7.78;5.47;;;32.10;89.30;;;;;;5015285;28;20171;-83
2022/07/25 10:10:30;;;;;;;9.13;6.03;;;32.00;88.30;;;;;;5014267;28;20229;-84
2022/07/25 10:13:10;;;;;;;8.23;5.70;;;32.00;88.30;;;;;;5015640;28;20203;-85
2022/07/25 10:15:54;;;;;;;6.00;5.40;;;31.80;90.00;;;;;;5015363;28;20209;-83
2022/07/25 10:18:26;;;;;;;8.57;6.00;;;31.60;90.20;;;;;;5014199;28;20185;-83
2022/07/25 10:21:06;;;;;;;9.52;5.70;;;31.70;88.70;;;;;;5014578;28;20237;-83
2022/07/25 10:23:32;;;;;;;11.27;6.25;;;31.20;88.30;;;;;;5014603;28;20202;-84
2022/07/25 10:26:14;;;;;;;14.27;6.40;;;31.20;88.10;;;;;;5015590;28;20221;-83
2022/07/25 10:28:48;;;;;;;9.32;6.50;;;31.00;88.80;;;;;;5013546;28;20170;-84
2022/07/25 10:31:34;;;;;;;9.10;5.75;;;31.10;88.70;;;;;;5012790;28;20171;-83
2022/07/25 10:34:05;;;;;;;7.80;6.22;;;30.60;89.90;;;;;;5012365;28;20281;-83
2022/07/25 10:36:45;;;;;;;11.60;6.53;;;31.00;88.80;;;;;;5012032;28;20228;-81
2022/07/25 10:39:13;;;;;;;9.32;5.85;;;30.80;90.40;;;;;;5018982;28;20261;-82
2022/07/25 10:41:41;;;;;;;10.90;7.15;;;30.80;88.80;;;;;;5015988;28;20586;-83
2022/07/25 10:44:13;;;;;;;9.10;6.82;;;30.30;90.40;;;;;;5019738;28;20210;-84
2022/07/25 10:46:38;;;;;;;8.65;6.18;;;30.00;90.00;;;;;;5019448;28;20206;-83
2022/07/25 10:49:06;;;;;;;8.43;6.50;;;30.10;89.70;;;;;;5018834;28;20182;-83
2022/07/25 10:51:34;;;;;;;7.93;6.28;;;30.10;90.30;;;;;;5018897;28;20175;-84
2022/07/25 10:54:14;;;;;;;11.88;6.57;;;30.00;90.70;;;;;;5018859;28;20203;-83
2022/07/25 10:56:54;;;;;;;13.93;6.65;;;30.00;90.20;;;;;;5018326;28;20698;-85
2022/07/25 10:59:34;;;;;;;9.38;6.28;;;30.20;90.70;;;;;;5018976;28;20182;-84
2022/07/25 11:02:00;;;;;;;13.35;6.85;;;30.00;90.70;;;;;;5018645;28;20179;-83
2022/07/25 11:04:26;;;;;;;8.57;6.45;;;29.80;91.00;;;;;;5017939;28;20329;-85
2022/07/25 11:06:52;;;;;;;9.40;6.68;;;30.10;91.40;;;;;;5020124;28;20194;-84
2022/07/25 11:09:26;;;;;;;8.45;5.88;;;30.30;90.80;;;;;;5018970;28;20182;-84
2022/07/25 11:11:56;;;;;;;10.75;6.20;;;29.90;90.50;;;;;;5019117;28;20366;-82
2022/07/25 11:14:24;;;;;;;9.77;6.47;;;30.10;90.40;;;;;;5018964;28;20206;-83
2022/07/25 11:16:54;;;;;;;12.23;6.55;;;30.40;90.70;;;;;;5016808;28;20248;-84
2022/07/25 11:19:28;;;;;;;8.45;6.30;;;30.50;90.20;;;;;;5015938;28;20163;-83
2022/07/25 11:21:59;;;;;;;7.05;6.07;;;30.80;90.00;;;;;;5016137;28;20647;-83
2022/07/25 11:24:35;;;;;;;8.25;6.15;;;30.90;89.80;;;;;;5017362;28;20249;-82
2022/07/25 11:27:02;;;;;;;9.05;5.68;;;31.50;88.80;;;;;;5015299;28;20697;-84
2022/07/25 11:29:27;;;;;;;11.05;6.05;;;31.90;90.20;;;;;;5016028;28;20177;-81
2022/07/25 11:31:53;;;;;;;8.18;5.82;;;32.10;89.60;;;;;;5016003;28;20166;-83
2022/07/25 11:34:22;;;;;;;8.38;6.03;;;31.20;89.60;;;;;;5016702;28;20186;-82
2022/07/25 11:36:49;;;;;;;8.55;6.13;;;31.30;90.00;;;;;;5015778;28;20179;-83
2022/07/25 11:39:16;;;;;;;8.43;6.30;;;31.60;89.00;;;;;;5015302;28;20171;-83
2022/07/25 11:41:41;;;;;;;9.48;6.40;;;32.50;88.00;;;;;;5015482;28;20182;-84
2022/07/25 11:44:07;;;;;;;10.48;6.38;;;31.90;88.70;;;;;;5015485;28;20210;-82
2022/07/25 11:46:43;;;;;;;8.32;6.53;;;31.40;88.90;;;;;;5016078;28;20182;-82
2022/07/25 11:49:09;;;;;;;10.70;6.22;;;31.40;89.30;;;;;;5015837;28;20718;-81
2022/07/25 11:51:37;;;;;;;8.80;6.43;;;31.10;88.70;;;;;;5015205;28;20217;-83
2022/07/25 11:54:10;;;;;;;15.65;7.25;;;31.00;89.60;;;;;;5016272;28;20195;-82
2022/07/25 11:56:39;;;;;;;7.68;6.25;;;30.80;90.30;;;;;;5015966;28;20654;-83
2022/07/25 11:59:05;;;;;;;12.02;6.63;;;30.90;89.50;;;;;;5016735;28;20181;-83
2022/07/25 12:01:36;;;;;;;9.77;6.38;;;30.80;90.80;;;;;;5016206;28;20174;-83
2022/07/25 12:04:18;;;;;;;8.50;6.47;;;30.90;90.90;;;;;;5015825;28;20234;-82
2022/07/25 12:06:47;;;;;;;9.43;6.70;;;30.80;90.20;;;;;;5015181;28;20174;-83
2022/07/25 12:09:18;;;;;;;9.35;6.55;;;31.00;89.80;;;;;;5014957;28;20185;-83
2022/07/25 12:11:45;;;;;;;12.40;6.15;;;31.30;89.50;;;;;;5014305;28;20175;-83
2022/07/25 12:14:12;;;;;;;9.48;5.80;;;31.20;90.10;;;;;;5014721;28;20694;-83
2022/07/25 12:16:38;;;;;;;7.60;6.05;;;31.30;90.10;;;;;;5014898;28;20285;-83
2022/07/25 12:19:08;;;;;;;15.32;5.55;;;30.80;89.70;;;;;;5014806;28;20220;-83
2022/07/25 12:21:35;;;;;;;6.65;5.40;;;30.50;89.90;;;;;;5014924;28;20182;-83
2022/07/25 12:24:01;;;;;;;9.82;5.57;;;30.10;89.80;;;;;;5014683;28;20214;-83
2022/07/25 12:26:26;;;;;;;6.80;5.60;;;30.00;90.10;;;;;;5014961;28;20533;-83
2022/07/25 12:28:52;;;;;;;7.68;4.90;;;29.90;89.10;;;;;;5014981;28;20179;-84
2022/07/25 12:31:18;;;;;;;6.25;5.25;;;30.10;88.80;;;;;;5014587;28;20171;-84
2022/07/25 12:33:43;;;;;;;6.63;5.30;;;30.20;90.10;;;;;;5014818;28;20202;-82
2022/07/25 12:36:12;;;;;;;12.05;5.93;;;30.20;89.30;;;;;;5014714;28;20208;-84
2022/07/25 12:38:38;;;;;;;8.70;5.50;;;29.80;90.70;;;;;;5014795;28;20178;-84
2022/07/25 12:41:04;;;;;;;6.43;5.38;;;29.80;90.10;;;;;;5016056;28;20547;-84
2022/07/25 12:43:29;;;;;;;7.05;4.90;;;29.80;90.20;;;;;;5013937;28;20293;-85
2022/07/25 12:45:55;;;;;;;8.35;4.35;;;29.70;90.70;;;;;;5019744;28;20238;-83